Time;durP1;ratioP1;P1;durP2;ratioP2;P2;SDS_P1;SDS_P2;PMS_P1;PMS_P2;Temp;Humidity;BMP_temperature;BMP_pressure;BME280_temperature;BME280_humidity;BME280_pressure;Samples;Min_cycle;Max_cycle;Signal;HPM_P1;HPM_P2
2021/04/19 00:02:08;;;;;;;9.02;3.70;;;18.30;51.90;;;;;;6213669;23;20027;-74
2021/04/19 00:04:34;;;;;;;7.82;3.10;;;18.30;51.90;;;;;;6213663;23;20456;-74
2021/04/19 00:07:00;;;;;;;8.43;3.50;;;18.30;51.90;;;;;;6213201;23;20011;-75
2021/04/19 00:09:26;;;;;;;6.50;3.13;;;18.30;51.90;;;;;;6212360;23;20353;-74
2021/04/19 00:11:51;;;;;;;6.53;3.22;;;18.30;52.00;;;;;;6214011;23;20000;-74
2021/04/19 00:14:17;;;;;;;9.50;4.00;;;18.20;52.00;;;;;;6213245;23;20004;-74
2021/04/19 00:16:43;;;;;;;8.48;3.55;;;18.20;51.90;;;;;;6214232;23;20024;-74
2021/04/19 00:19:08;;;;;;;8.23;3.78;;;18.20;51.90;;;;;;6213857;23;20426;-75
2021/04/19 00:21:34;;;;;;;8.48;3.92;;;18.20;51.90;;;;;;6213808;23;20438;-73
2021/04/19 00:24:00;;;;;;;7.68;3.47;;;18.20;51.90;;;;;;6213530;23;20009;-75
2021/04/19 00:26:25;;;;;;;8.95;3.60;;;18.20;51.90;;;;;;6213805;23;20038;-75
2021/04/19 00:28:51;;;;;;;8.18;3.17;;;18.20;51.90;;;;;;6213896;23;20067;-74
2021/04/19 00:31:17;;;;;;;7.72;3.00;;;18.10;51.80;;;;;;6213692;23;20076;-74
2021/04/19 00:33:42;;;;;;;7.88;3.53;;;18.10;51.80;;;;;;6213301;23;20063;-74
2021/04/19 00:36:10;;;;;;;6.47;3.42;;;18.10;51.70;;;;;;6213738;23;20384;-74
2021/04/19 00:38:35;;;;;;;11.50;3.97;;;18.10;51.70;;;;;;6213088;23;20027;-74
2021/04/19 00:41:02;;;;;;;13.27;3.70;;;18.10;51.70;;;;;;6213990;23;20071;-74
2021/04/19 00:43:28;;;;;;;7.38;3.28;;;18.00;51.60;;;;;;6186512;23;20035;-74
2021/04/19 00:46:02;;;;;;;8.43;3.20;;;18.00;51.70;;;;;;6213428;23;20007;-74
2021/04/19 00:48:28;;;;;;;6.95;3.58;;;18.00;51.70;;;;;;6213284;23;20499;-74
2021/04/19 00:50:55;;;;;;;8.88;3.60;;;17.90;51.60;;;;;;6213880;23;20001;-75
2021/04/19 00:53:24;;;;;;;7.80;2.90;;;17.90;51.70;;;;;;6213440;23;20464;-75
2021/04/19 00:55:50;;;;;;;9.05;3.17;;;17.90;51.60;;;;;;6213707;23;20008;-74
2021/04/19 00:58:17;;;;;;;6.30;2.72;;;17.90;51.50;;;;;;6206640;23;20005;-74
2021/04/19 01:00:43;;;;;;;5.50;2.60;;;17.90;51.50;;;;;;6212922;23;20005;-74
2021/04/19 01:03:09;;;;;;;8.82;3.00;;;17.80;51.50;;;;;;6213198;23;19997;-74
2021/04/19 01:05:38;;;;;;;6.30;3.05;;;17.80;51.50;;;;;;6213124;23;20005;-74
2021/04/19 01:08:05;;;;;;;8.07;3.00;;;17.80;51.40;;;;;;6213151;23;20452;-74
2021/04/19 01:10:30;;;;;;;5.72;3.22;;;17.80;51.40;;;;;;6213908;23;20004;-74
2021/04/19 01:12:56;;;;;;;6.18;3.10;;;17.80;51.50;;;;;;6213000;23;20061;-74
2021/04/19 01:15:22;;;;;;;8.20;3.55;;;17.80;51.50;;;;;;6212768;23;20001;-74
2021/04/19 01:17:48;;;;;;;7.32;3.08;;;17.80;51.60;;;;;;6212967;23;20422;-74
2021/04/19 01:20:16;;;;;;;7.32;2.80;;;17.70;51.50;;;;;;6213128;23;20001;-75
2021/04/19 01:22:43;;;;;;;6.25;3.08;;;17.70;51.50;;;;;;6213244;23;20446;-75
2021/04/19 01:25:15;;;;;;;5.25;2.85;;;17.70;51.50;;;;;;6213639;23;20000;-75
2021/04/19 01:27:41;;;;;;;6.78;2.78;;;17.70;51.50;;;;;;6212878;23;20005;-75
2021/04/19 01:30:08;;;;;;;7.15;2.83;;;17.70;51.50;;;;;;6213287;23;20091;-75
2021/04/19 01:32:34;;;;;;;6.22;3.00;;;17.60;51.50;;;;;;6213352;23;20068;-75
2021/04/19 01:35:00;;;;;;;5.20;2.55;;;17.60;51.50;;;;;;6213475;23;20082;-74
2021/04/19 01:37:25;;;;;;;4.63;2.42;;;17.60;51.50;;;;;;6214198;23;20012;-74
2021/04/19 01:39:51;;;;;;;7.45;3.13;;;17.60;51.50;;;;;;6215523;23;20004;-75
2021/04/19 01:42:17;;;;;;;7.57;3.28;;;17.60;51.50;;;;;;6215100;23;20430;-75
2021/04/19 01:44:42;;;;;;;4.80;2.72;;;17.60;51.50;;;;;;6214192;23;20000;-75
2021/04/19 01:47:08;;;;;;;6.60;3.40;;;17.50;51.60;;;;;;6215162;23;20004;-75
2021/04/19 01:49:34;;;;;;;5.75;2.97;;;17.50;51.50;;;;;;6215804;23;20096;-75
2021/04/19 01:52:02;;;;;;;5.70;2.85;;;17.50;51.40;;;;;;6214878;23;20008;-74
2021/04/19 01:54:28;;;;;;;7.07;3.25;;;17.50;51.50;;;;;;6188825;23;20004;-74
2021/04/19 01:56:54;;;;;;;4.68;2.58;;;17.40;51.40;;;;;;6214849;23;19997;-74
2021/04/19 01:59:20;;;;;;;4.32;2.65;;;17.50;51.30;;;;;;6188488;23;20323;-74
2021/04/19 02:02:07;;;;;;;5.40;3.30;;;17.40;51.30;;;;;;6214360;23;20072;-74
2021/04/19 02:05:03;;;;;;;7.55;3.25;;;17.40;51.30;;;;;;6215836;23;20078;-74
2021/04/19 02:07:56;;;;;;;6.15;2.63;;;17.40;51.30;;;;;;6213777;23;20005;-74
2021/04/19 02:10:31;;;;;;;6.07;3.03;;;17.40;51.30;;;;;;6214183;23;20047;-74
2021/04/19 02:13:08;;;;;;;5.55;2.70;;;17.30;51.30;;;;;;6214462;23;20001;-74
2021/04/19 02:15:52;;;;;;;5.82;2.58;;;17.30;51.30;;;;;;6215171;23;20001;-74
2021/04/19 02:18:23;;;;;;;5.65;2.65;;;17.30;51.30;;;;;;6214842;23;20353;-74
2021/04/19 02:20:54;;;;;;;5.80;2.70;;;17.30;51.40;;;;;;6214754;23;20036;-74
2021/04/19 02:23:28;;;;;;;6.78;2.95;;;17.30;51.40;;;;;;6212471;23;20373;-74
2021/04/19 02:26:04;;;;;;;5.32;2.30;;;17.30;51.40;;;;;;6215110;23;20007;-74
2021/04/19 02:28:34;;;;;;;5.35;2.92;;;17.20;51.30;;;;;;6214416;23;20521;-74
2021/04/19 02:31:03;;;;;;;3.97;2.17;;;17.20;51.30;;;;;;6188280;23;20012;-74
2021/04/19 02:33:36;;;;;;;4.78;2.30;;;17.20;51.30;;;;;;6214605;23;20004;-74
2021/04/19 02:36:08;;;;;;;7.07;3.08;;;17.20;51.30;;;;;;6215422;23;20024;-74
2021/04/19 02:38:35;;;;;;;5.53;2.50;;;17.20;51.30;;;;;;6214719;23;20019;-74
2021/04/19 02:41:02;;;;;;;7.03;2.97;;;17.10;51.40;;;;;;6214374;23;19997;-74
2021/04/19 02:43:32;;;;;;;6.13;2.40;;;17.10;51.90;;;;;;6215271;23;20012;-74
2021/04/19 02:45:59;;;;;;;5.82;2.65;;;17.10;51.40;;;;;;6214200;23;20755;-74
2021/04/19 02:48:26;;;;;;;5.47;2.90;;;17.10;51.30;;;;;;6214859;23;20007;-74
2021/04/19 02:50:53;;;;;;;7.35;3.03;;;17.10;51.30;;;;;;6214512;23;20004;-74
2021/04/19 02:53:20;;;;;;;5.05;3.08;;;17.10;51.30;;;;;;6209529;23;20059;-74
2021/04/19 02:55:47;;;;;;;6.75;2.63;;;17.10;51.30;;;;;;6212015;23;20008;-74
2021/04/19 02:58:16;;;;;;;5.07;2.90;;;17.10;51.30;;;;;;6212803;23;20433;-74
2021/04/19 03:00:49;;;;;;;5.00;2.80;;;17.00;51.20;;;;;;6214244;23;20005;-74
2021/04/19 03:03:29;;;;;;;5.63;2.70;;;17.00;51.30;;;;;;6214411;23;20001;-74
2021/04/19 03:05:58;;;;;;;8.65;3.00;;;17.00;51.20;;;;;;6214685;23;20004;-74
2021/04/19 03:08:28;;;;;;;6.03;2.53;;;17.00;51.20;;;;;;6213472;23;20078;-74
2021/04/19 03:11:11;;;;;;;5.50;2.67;;;17.00;51.20;;;;;;6214397;23;20011;-75
2021/04/19 03:13:39;;;;;;;4.97;2.28;;;17.00;51.30;;;;;;6214717;23;20047;-74
2021/04/19 03:16:05;;;;;;;4.35;2.25;;;17.00;51.30;;;;;;6187818;23;20345;-74
2021/04/19 03:18:35;;;;;;;5.22;2.90;;;16.90;51.30;;;;;;6214497;23;20007;-74
2021/04/19 03:21:09;;;;;;;3.60;2.20;;;17.00;51.30;;;;;;6214242;23;20007;-74
2021/04/19 03:23:41;;;;;;;5.57;3.00;;;16.90;51.30;;;;;;6214700;23;20082;-74
2021/04/19 03:26:08;;;;;;;3.90;2.38;;;16.90;51.30;;;;;;6188026;23;20008;-74
2021/04/19 03:28:35;;;;;;;5.43;2.75;;;16.90;51.30;;;;;;6187296;23;20430;-74
2021/04/19 03:31:05;;;;;;;4.32;2.33;;;16.90;51.30;;;;;;6214338;23;20013;-74
2021/04/19 03:33:32;;;;;;;7.70;3.20;;;16.90;51.30;;;;;;6214950;23;20008;-74
2021/04/19 03:36:00;;;;;;;4.82;2.70;;;16.80;51.30;;;;;;6214553;23;20027;-74
2021/04/19 03:38:26;;;;;;;5.30;2.92;;;16.80;51.30;;;;;;6213284;23;20465;-74
2021/04/19 03:40:53;;;;;;;6.18;3.03;;;16.90;51.30;;;;;;6214434;23;20024;-74
2021/04/19 03:43:22;;;;;;;4.20;2.40;;;16.80;51.20;;;;;;6214065;23;20004;-74
2021/04/19 03:45:51;;;;;;;6.53;3.35;;;16.80;51.20;;;;;;6213476;23;20000;-74
2021/04/19 03:48:21;;;;;;;6.45;2.75;;;16.80;51.20;;;;;;6214143;23;20001;-75
2021/04/19 03:50:51;;;;;;;4.50;2.40;;;16.80;51.20;;;;;;6213342;23;20452;-74
2021/04/19 03:53:18;;;;;;;5.63;2.80;;;16.80;51.20;;;;;;6214313;23;20374;-75
2021/04/19 03:55:47;;;;;;;3.53;2.30;;;16.80;51.20;;;;;;6213659;23;20334;-75
2021/04/19 03:58:14;;;;;;;4.93;2.45;;;16.80;51.20;;;;;;6213670;23;20028;-74
2021/04/19 04:00:41;;;;;;;5.80;2.75;;;16.70;51.20;;;;;;6208308;23;20000;-74
2021/04/19 04:03:08;;;;;;;6.78;2.75;;;16.70;51.10;;;;;;6213090;23;20004;-74
2021/04/19 04:05:34;;;;;;;7.10;3.08;;;16.70;51.10;;;;;;6212644;23;20005;-74
2021/04/19 04:08:01;;;;;;;4.15;2.58;;;16.70;51.20;;;;;;6212887;23;20043;-74
2021/04/19 04:10:27;;;;;;;4.38;2.55;;;16.70;51.20;;;;;;6186437;23;20012;-74
2021/04/19 04:12:54;;;;;;;4.82;2.70;;;16.70;51.20;;;;;;6186684;23;20084;-74
2021/04/19 04:15:20;;;;;;;3.97;2.42;;;16.70;51.20;;;;;;6213692;23;20007;-74
2021/04/19 04:17:45;;;;;;;6.65;3.30;;;16.70;51.20;;;;;;6187456;23;20008;-74
2021/04/19 04:20:12;;;;;;;7.35;2.50;;;16.70;51.20;;;;;;6213877;23;20338;-74
2021/04/19 04:22:38;;;;;;;6.57;2.72;;;16.70;51.20;;;;;;6213712;23;20450;-74
2021/04/19 04:25:05;;;;;;;4.55;2.30;;;16.60;51.10;;;;;;6213310;23;20007;-75
2021/04/19 04:27:31;;;;;;;4.88;2.38;;;16.60;51.20;;;;;;6213773;23;20008;-75
2021/04/19 04:29:56;;;;;;;7.38;3.33;;;16.60;51.20;;;;;;6213088;23;20062;-74
2021/04/19 04:32:22;;;;;;;5.70;2.83;;;16.60;51.20;;;;;;6214003;23;20073;-74
2021/04/19 04:34:48;;;;;;;5.20;2.58;;;16.60;51.20;;;;;;6213875;23;20109;-74
2021/04/19 04:37:13;;;;;;;4.43;3.05;;;16.60;51.20;;;;;;6213510;23;20012;-74
2021/04/19 04:39:39;;;;;;;4.38;2.80;;;16.60;51.20;;;;;;6212893;23;20016;-74
2021/04/19 04:42:11;;;;;;;5.63;2.90;;;16.60;51.20;;;;;;6213714;23;20080;-74
2021/04/19 04:44:40;;;;;;;7.65;2.70;;;16.60;51.20;;;;;;6186235;23;20004;-74
2021/04/19 04:47:12;;;;;;;5.05;2.67;;;16.50;51.10;;;;;;6213846;23;20441;-74
2021/04/19 04:49:55;;;;;;;6.25;3.00;;;16.50;51.10;;;;;;6213156;23;20017;-74
2021/04/19 04:52:22;;;;;;;5.07;2.60;;;16.50;51.10;;;;;;6213668;23;20007;-74
2021/04/19 04:54:49;;;;;;;4.65;2.30;;;16.50;51.00;;;;;;6213497;23;20008;-74
2021/04/19 04:57:21;;;;;;;4.40;2.55;;;16.50;51.00;;;;;;6213416;23;20000;-74
2021/04/19 04:59:50;;;;;;;5.65;2.38;;;16.50;51.10;;;;;;6212423;23;20319;-74
2021/04/19 05:02:20;;;;;;;4.28;2.70;;;16.50;51.10;;;;;;6213086;23;20020;-74
2021/04/19 05:04:47;;;;;;;5.72;2.50;;;16.50;51.10;;;;;;6213650;23;20388;-74
2021/04/19 05:07:12;;;;;;;7.68;3.10;;;16.50;51.10;;;;;;6213512;23;20088;-74
2021/04/19 05:09:38;;;;;;;7.38;3.10;;;16.40;51.10;;;;;;6212625;23;20047;-73
2021/04/19 05:12:05;;;;;;;4.35;2.42;;;16.40;51.10;;;;;;6212856;23;20004;-74
2021/04/19 05:14:32;;;;;;;5.90;2.63;;;16.40;51.00;;;;;;6213254;23;20031;-74
2021/04/19 05:16:57;;;;;;;4.10;2.38;;;16.40;51.00;;;;;;6213566;23;20075;-74
2021/04/19 05:19:23;;;;;;;6.78;3.00;;;16.40;51.10;;;;;;6212948;23;20480;-74
2021/04/19 05:21:49;;;;;;;6.45;3.05;;;16.40;51.10;;;;;;6213328;23;20001;-74
2021/04/19 05:24:14;;;;;;;4.72;2.70;;;16.40;51.10;;;;;;6214375;23;20000;-74
2021/04/19 05:26:40;;;;;;;4.68;2.75;;;16.40;51.10;;;;;;6213239;23;20008;-74
2021/04/19 05:29:05;;;;;;;5.47;2.78;;;16.40;51.10;;;;;;6212923;23;20401;-74
2021/04/19 05:31:31;;;;;;;5.00;3.05;;;16.40;51.10;;;;;;6213530;23;20000;-74
2021/04/19 05:33:57;;;;;;;6.28;2.83;;;16.40;51.00;;;;;;6212619;23;19997;-74
2021/04/19 05:36:28;;;;;;;5.18;2.50;;;16.30;51.00;;;;;;6212334;23;20331;-74
2021/04/19 05:38:54;;;;;;;5.85;2.72;;;16.30;51.00;;;;;;6213045;23;20004;-73
2021/04/19 05:41:20;;;;;;;5.40;2.60;;;16.30;51.00;;;;;;6186800;23;20382;-74
2021/04/19 05:43:46;;;;;;;5.85;2.70;;;16.30;51.00;;;;;;6186088;23;20087;-74
2021/04/19 05:46:14;;;;;;;4.72;2.67;;;16.30;51.00;;;;;;6212737;23;20034;-73
2021/04/19 05:48:42;;;;;;;7.32;3.22;;;16.30;51.00;;;;;;6213255;23;20106;-73
2021/04/19 05:51:27;;;;;;;5.63;2.88;;;16.30;51.50;;;;;;6212418;23;20008;-73
2021/04/19 05:53:55;;;;;;;6.93;3.13;;;16.30;50.90;;;;;;6186748;23;20000;-73
2021/04/19 05:57:02;;;;;;;4.80;2.72;;;16.30;50.80;;;;;;6212960;23;20441;-73
2021/04/19 05:59:44;;;;;;;4.78;2.55;;;16.40;50.70;;;;;;6172312;23;20008;-73
2021/04/19 06:02:14;;;;;;;4.63;2.60;;;16.60;50.60;;;;;;6176129;23;20514;-73
2021/04/19 06:04:46;;;;;;;4.28;2.28;;;16.70;50.50;;;;;;6211441;23;20349;-73
2021/04/19 06:07:27;;;;;;;5.47;2.67;;;16.70;50.30;;;;;;6212716;23;20001;-72
2021/04/19 06:09:59;;;;;;;3.92;2.45;;;16.90;50.20;;;;;;6212655;23;20020;-73
2021/04/19 06:12:30;;;;;;;5.22;2.25;;;17.00;50.00;;;;;;6213026;23;20005;-73
2021/04/19 06:15:01;;;;;;;3.28;2.03;;;17.20;50.20;;;;;;6212768;23;20111;-73
2021/04/19 06:17:27;;;;;;;7.82;2.17;;;17.40;50.10;;;;;;6212362;23;20000;-73
2021/04/19 06:19:54;;;;;;;8.20;2.95;;;17.50;50.20;;;;;;6212801;23;20029;-73
2021/04/19 06:22:20;;;;;;;7.97;2.65;;;17.60;50.30;;;;;;6213958;23;20070;-73
2021/04/19 06:24:50;;;;;;;5.80;1.77;;;17.80;50.40;;;;;;6215214;23;20004;-73
2021/04/19 06:27:34;;;;;;;7.68;2.78;;;17.90;50.20;;;;;;6214332;23;20059;-74
2021/04/19 06:30:20;;;;;;;6.25;3.15;;;18.00;50.20;;;;;;6215018;23;20528;-75
2021/04/19 06:32:48;;;;;;;5.60;2.40;;;18.10;50.60;;;;;;6215622;23;20005;-73
2021/04/19 06:35:16;;;;;;;6.72;2.45;;;18.10;50.70;;;;;;6214715;23;20000;-73
2021/04/19 06:37:42;;;;;;;5.35;2.88;;;18.20;50.70;;;;;;6214848;23;20004;-74
2021/04/19 06:40:08;;;;;;;5.10;2.28;;;18.30;50.50;;;;;;6214079;23;19997;-73
2021/04/19 06:42:35;;;;;;;5.70;3.05;;;18.30;50.50;;;;;;6214499;23;20083;-73
2021/04/19 06:45:03;;;;;;;7.20;2.80;;;18.40;50.80;;;;;;6213059;23;19996;-74
2021/04/19 06:47:31;;;;;;;6.25;2.80;;;18.50;50.70;;;;;;6214417;23;20000;-73
2021/04/19 06:49:58;;;;;;;6.05;2.97;;;18.70;50.70;;;;;;6214204;23;20504;-74
2021/04/19 06:52:24;;;;;;;5.97;3.42;;;18.80;50.60;;;;;;6214843;23;20338;-74
2021/04/19 06:54:49;;;;;;;8.93;4.03;;;18.90;50.50;;;;;;6214577;23;20039;-75
2021/04/19 06:57:17;;;;;;;7.55;3.50;;;18.90;50.30;;;;;;6214265;23;20005;-74
2021/04/19 06:59:45;;;;;;;10.77;4.18;;;19.00;50.30;;;;;;6213640;23;20011;-74
2021/04/19 07:02:19;;;;;;;12.50;5.10;;;19.00;50.10;;;;;;6212711;23;20075;-74
2021/04/19 07:04:45;;;;;;;12.77;4.13;;;19.00;50.10;;;;;;6188406;23;20032;-74
2021/04/19 07:07:18;;;;;;;8.88;3.90;;;19.10;50.00;;;;;;6213812;23;20003;-73
2021/04/19 07:09:48;;;;;;;11.25;3.90;;;19.10;49.70;;;;;;6214094;23;20092;-74
2021/04/19 07:12:17;;;;;;;9.85;3.30;;;19.20;49.70;;;;;;6214038;23;20007;-73
2021/04/19 07:14:47;;;;;;;9.23;4.22;;;19.20;49.50;;;;;;6214052;23;20434;-73
2021/04/19 07:17:13;;;;;;;9.88;3.80;;;19.20;49.40;;;;;;6213388;23;20450;-75
2021/04/19 07:19:39;;;;;;;9.73;3.80;;;19.30;49.40;;;;;;6214058;23;20013;-74
2021/04/19 07:22:05;;;;;;;9.65;3.75;;;19.40;49.40;;;;;;6213396;23;20001;-75
2021/04/19 07:24:33;;;;;;;10.10;4.03;;;19.40;49.30;;;;;;6213953;23;20012;-74
2021/04/19 07:27:02;;;;;;;7.72;3.45;;;19.40;49.20;;;;;;6214281;23;20007;-74
2021/04/19 07:29:27;;;;;;;8.40;4.22;;;19.50;49.20;;;;;;6213700;23;20050;-73
2021/04/19 07:31:55;;;;;;;9.50;4.30;;;19.50;49.20;;;;;;6214732;23;19997;-73
2021/04/19 07:34:29;;;;;;;9.93;4.20;;;19.50;49.10;;;;;;6214012;23;20009;-74
2021/04/19 07:37:06;;;;;;;8.70;4.40;;;19.50;49.10;;;;;;6214226;23;20426;-74
2021/04/19 07:39:34;;;;;;;7.80;4.10;;;19.50;49.00;;;;;;6213036;23;20004;-73
2021/04/19 07:42:02;;;;;;;9.63;4.20;;;19.50;49.00;;;;;;6214386;23;20008;-74
2021/04/19 07:44:40;;;;;;;8.35;4.55;;;19.50;49.60;;;;;;6213767;23;20001;-73
2021/04/19 07:47:32;;;;;;;9.20;4.38;;;19.50;49.00;;;;;;6213753;23;20513;-74
2021/04/19 07:50:05;;;;;;;9.65;4.65;;;19.50;49.00;;;;;;6213521;23;20040;-73
2021/04/19 07:52:36;;;;;;;9.95;4.80;;;19.50;49.00;;;;;;6213774;23;20442;-73
2021/04/19 07:55:12;;;;;;;10.70;4.60;;;19.50;49.00;;;;;;6213874;23;20092;-73
2021/04/19 07:57:38;;;;;;;7.93;4.72;;;19.40;49.00;;;;;;6187404;23;20318;-73
2021/04/19 08:00:06;;;;;;;10.20;5.60;;;19.40;49.00;;;;;;6213933;23;20024;-73
2021/04/19 08:02:32;;;;;;;8.05;4.85;;;19.40;49.10;;;;;;6212514;23;20000;-75
2021/04/19 08:04:59;;;;;;;9.85;5.32;;;19.40;49.10;;;;;;6213733;23;20055;-74
2021/04/19 08:07:30;;;;;;;11.80;6.05;;;19.40;49.00;;;;;;6213782;23;20338;-73
2021/04/19 08:10:07;;;;;;;11.23;6.45;;;19.40;49.00;;;;;;6213905;23;20012;-73
2021/04/19 08:12:42;;;;;;;7.88;4.90;;;19.40;49.00;;;;;;6213419;23;20142;-73
2021/04/19 08:15:13;;;;;;;10.98;5.80;;;19.30;49.00;;;;;;6213698;23;20005;-73
2021/04/19 08:17:39;;;;;;;10.20;4.97;;;19.30;49.00;;;;;;6213860;23;20083;-73
2021/04/19 08:20:16;;;;;;;11.75;5.53;;;19.30;49.00;;;;;;6212330;23;20001;-73
2021/04/19 08:22:42;;;;;;;12.85;6.05;;;19.30;49.10;;;;;;6203894;23;20033;-73
2021/04/19 08:25:20;;;;;;;10.35;5.80;;;19.30;49.10;;;;;;6214231;23;20072;-74
2021/04/19 08:28:10;;;;;;;12.60;6.03;;;19.20;49.10;;;;;;6213657;23;20381;-74
2021/04/19 08:30:37;;;;;;;9.63;5.93;;;19.20;49.10;;;;;;6213111;23;20012;-73
2021/04/19 08:33:04;;;;;;;12.02;6.63;;;19.20;49.00;;;;;;6214036;23;20003;-73
2021/04/19 08:35:30;;;;;;;11.05;6.18;;;19.20;49.10;;;;;;6213625;23;20004;-74
2021/04/19 08:37:58;;;;;;;9.93;5.95;;;19.10;48.90;;;;;;6213844;23;20070;-73
2021/04/19 08:40:28;;;;;;;13.95;6.32;;;19.10;49.00;;;;;;6213605;23;20342;-73
2021/04/19 08:42:54;;;;;;;10.30;6.53;;;19.10;49.10;;;;;;6213344;23;20007;-74
2021/04/19 08:45:20;;;;;;;12.75;6.00;;;19.10;49.10;;;;;;6213484;23;20020;-73
2021/04/19 08:47:47;;;;;;;12.15;6.80;;;19.00;49.20;;;;;;6213308;23;20024;-74
2021/04/19 08:50:46;;;;;;;12.10;5.85;;;19.00;49.10;;;;;;6213263;23;20039;-73
2021/04/19 08:53:10;;;;;;;11.27;5.82;;;19.00;49.10;;;;;;6209181;23;20441;-73
2021/04/19 08:55:37;;;;;;;10.07;5.45;;;18.90;49.00;;;;;;6213391;23;20020;-73
2021/04/19 08:58:09;;;;;;;10.70;6.40;;;18.90;49.10;;;;;;6213163;23;20000;-73
2021/04/19 09:00:36;;;;;;;9.35;6.47;;;18.90;49.10;;;;;;6213942;23;20007;-73
2021/04/19 09:03:02;;;;;;;11.85;6.55;;;18.90;49.10;;;;;;6212975;23;20346;-73
2021/04/19 09:05:28;;;;;;;9.75;5.97;;;18.90;49.10;;;;;;6213924;23;19997;-73
2021/04/19 09:08:05;;;;;;;11.10;6.55;;;18.90;49.10;;;;;;6213652;23;20001;-73
2021/04/19 09:10:50;;;;;;;10.50;6.68;;;18.90;49.20;;;;;;6212870;23;20009;-73
2021/04/19 09:13:24;;;;;;;11.13;6.38;;;18.90;49.10;;;;;;6213511;23;20008;-72
2021/04/19 09:15:52;;;;;;;9.10;6.05;;;18.90;49.20;;;;;;6212906;23;19997;-73
2021/04/19 09:18:20;;;;;;;11.52;5.97;;;18.80;49.20;;;;;;6186536;23;20071;-73
2021/04/19 09:20:47;;;;;;;9.80;5.65;;;18.80;49.20;;;;;;6186106;23;20438;-74
2021/04/19 09:23:33;;;;;;;11.40;6.13;;;18.80;49.20;;;;;;6213428;23;20001;-73
2021/04/19 09:26:00;;;;;;;12.25;7.88;;;18.80;49.20;;;;;;6214055;23;19997;-73
2021/04/19 09:28:40;;;;;;;11.80;6.85;;;18.80;49.30;;;;;;6213440;23;20067;-73
2021/04/19 09:31:11;;;;;;;10.63;7.07;;;18.80;49.30;;;;;;6213499;23;20441;-73
2021/04/19 09:33:37;;;;;;;12.35;7.38;;;18.80;49.30;;;;;;6212970;23;20341;-74
2021/04/19 09:36:04;;;;;;;14.88;6.88;;;18.80;49.40;;;;;;6213693;23;20005;-73
2021/04/19 09:38:41;;;;;;;12.95;6.85;;;18.80;49.40;;;;;;6212773;23;20036;-75
2021/04/19 09:41:12;;;;;;;13.00;7.55;;;18.80;49.40;;;;;;6213086;23;20005;-73
2021/04/19 09:43:45;;;;;;;10.68;7.38;;;18.80;49.40;;;;;;6213067;23;19996;-73
2021/04/19 09:46:16;;;;;;;14.52;9.38;;;18.80;49.40;;;;;;6213311;23;20033;-74
2021/04/19 09:48:54;;;;;;;13.93;7.90;;;18.80;49.50;;;;;;6212945;23;20009;-74
2021/04/19 09:51:24;;;;;;;13.45;8.60;;;18.80;49.50;;;;;;6211715;23;20011;-73
2021/04/19 09:53:56;;;;;;;12.45;8.75;;;18.80;49.40;;;;;;6213489;23;20390;-73
2021/04/19 09:56:31;;;;;;;13.90;8.85;;;18.80;49.40;;;;;;6185926;23;20004;-74
2021/04/19 09:58:57;;;;;;;12.98;8.80;;;18.90;49.40;;;;;;6215916;23;20051;-74
2021/04/19 10:01:25;;;;;;;13.13;7.60;;;18.90;49.30;;;;;;6187275;23;20012;-74
2021/04/19 10:03:52;;;;;;;11.20;7.57;;;19.00;49.30;;;;;;6215424;23;20005;-73
2021/04/19 10:06:52;;;;;;;11.45;6.97;;;19.10;49.20;;;;;;6214715;23;20068;-73
2021/04/19 10:09:27;;;;;;;10.10;6.82;;;19.10;49.00;;;;;;6201835;23;20347;-73
2021/04/19 10:11:55;;;;;;;;;;;19.20;48.90;;;;;;6215156;23;19997;-77
2021/04/19 10:14:21;;;;;;;13.57;7.10;;;19.30;48.90;;;;;;6215293;23;19954;-78
2021/04/19 10:16:51;;;;;;;11.05;7.00;;;19.40;48.80;;;;;;6214469;23;20009;-76
2021/04/19 10:19:24;;;;;;;11.23;6.63;;;19.40;48.70;;;;;;6213818;23;20035;-75
2021/04/19 10:22:00;;;;;;;11.70;6.50;;;19.40;48.70;;;;;;6214840;23;20001;-75
2021/04/19 10:24:26;;;;;;;16.85;6.40;;;19.50;48.60;;;;;;6214640;23;20012;-76
2021/04/19 10:26:52;;;;;;;10.43;6.60;;;19.60;48.80;;;;;;6215217;23;20085;-76
2021/04/19 10:29:22;;;;;;;12.35;6.15;;;19.70;48.70;;;;;;6213910;23;20094;-76
2021/04/19 10:31:51;;;;;;;14.98;6.95;;;19.80;48.70;;;;;;6214850;23;20078;-75
2021/04/19 10:34:18;;;;;;;11.07;5.90;;;19.80;49.10;;;;;;6214718;23;20004;-76
2021/04/19 10:36:55;;;;;;;10.02;6.30;;;19.90;48.50;;;;;;6188387;23;20083;-75
2021/04/19 10:39:22;;;;;;;15.00;5.80;;;20.00;48.50;;;;;;6213524;23;20043;-74
2021/04/19 10:41:50;;;;;;;9.85;6.50;;;20.00;48.50;;;;;;6213833;23;20120;-75
2021/04/19 10:44:18;;;;;;;11.15;5.82;;;20.10;48.50;;;;;;6214449;23;20007;-75
2021/04/19 10:46:44;;;;;;;7.68;5.18;;;20.20;48.50;;;;;;6187915;23;20011;-75
2021/04/19 10:49:22;;;;;;;9.07;4.85;;;20.30;48.50;;;;;;6214441;23;20009;-75
2021/04/19 10:51:53;;;;;;;28.50;5.20;;;20.40;48.50;;;;;;6214357;23;20004;-75
2021/04/19 10:54:19;;;;;;;11.20;5.40;;;20.50;48.60;;;;;;6213866;23;20345;-75
2021/04/19 10:56:45;;;;;;;14.00;4.97;;;20.60;48.50;;;;;;6187698;23;20000;-76
2021/04/19 10:59:12;;;;;;;8.95;4.55;;;20.70;48.50;;;;;;6214183;23;20082;-75
2021/04/19 11:01:43;;;;;;;11.30;4.88;;;20.80;48.60;;;;;;6214419;23;20075;-75
2021/04/19 11:04:10;;;;;;;16.38;4.95;;;20.90;48.70;;;;;;6187971;23;20453;-75
2021/04/19 11:06:37;;;;;;;14.70;4.68;;;21.00;48.60;;;;;;6213705;23;20001;-74
2021/04/19 11:09:05;;;;;;;9.35;4.72;;;21.10;48.50;;;;;;6214237;23;20036;-75
2021/04/19 11:11:38;;;;;;;9.25;4.72;;;21.20;48.60;;;;;;6213174;23;20004;-75
2021/04/19 11:14:16;;;;;;;14.57;4.88;;;21.30;48.50;;;;;;6214259;23;20123;-75
2021/04/19 11:17:02;;;;;;;11.10;4.90;;;21.30;48.30;;;;;;6213649;23;20005;-74
2021/04/19 11:19:45;;;;;;;11.07;4.43;;;21.40;48.30;;;;;;6212316;23;20374;-75
2021/04/19 11:22:18;;;;;;;7.25;4.55;;;21.50;48.30;;;;;;6212407;23;20001;-75
2021/04/19 11:24:44;;;;;;;7.00;4.80;;;21.50;48.20;;;;;;6213206;23;20005;-75
2021/04/19 11:27:10;;;;;;;6.38;4.80;;;21.60;49.00;;;;;;6213051;23;20468;-75
2021/04/19 11:29:43;;;;;;;7.60;5.35;;;21.60;48.20;;;;;;6210868;23;20464;-75
2021/04/19 11:32:25;;;;;;;8.00;5.03;;;21.60;48.20;;;;;;6212333;23;20055;-75
2021/04/19 11:34:53;;;;;;;9.00;5.03;;;21.70;48.20;;;;;;6190089;23;20001;-76
2021/04/19 11:38:00;;;;;;;8.32;5.43;;;21.70;48.10;;;;;;6212790;23;20008;-75
2021/04/19 11:40:32;;;;;;;8.23;4.90;;;21.70;48.00;;;;;;6154762;23;20091;-75
2021/04/19 11:42:58;;;;;;;6.88;4.40;;;21.80;47.90;;;;;;6213245;23;20001;-75
2021/04/19 11:45:27;;;;;;;6.32;4.18;;;21.80;47.80;;;;;;6214580;23;20005;-75
2021/04/19 11:47:53;;;;;;;6.63;3.67;;;21.80;47.60;;;;;;6213847;23;20338;-76
2021/04/19 11:50:20;;;;;;;6.03;3.95;;;21.80;47.70;;;;;;6213173;23;20008;-78
2021/04/19 11:52:50;;;;;;;6.93;4.57;;;21.80;47.70;;;;;;6214176;23;20001;-81
2021/04/19 11:55:16;;;;;;;7.00;4.25;;;21.80;47.70;;;;;;6186917;23;20004;-82
2021/04/19 11:57:43;;;;;;;8.80;4.40;;;21.90;47.80;;;;;;6213748;23;20008;-82
2021/04/19 12:00:11;;;;;;;6.88;3.92;;;21.90;47.80;;;;;;6209776;23;20032;-81
2021/04/19 12:02:37;;;;;;;5.90;3.70;;;21.90;47.80;;;;;;6208303;23;19999;-80
2021/04/19 12:05:07;;;;;;;7.35;4.20;;;22.00;47.80;;;;;;6186413;23;20015;-81
2021/04/19 12:07:33;;;;;;;5.90;3.42;;;21.90;47.70;;;;;;6214003;23;20024;-81
2021/04/19 12:09:59;;;;;;;6.80;4.22;;;22.00;47.90;;;;;;6213774;23;20044;-81
2021/04/19 12:12:25;;;;;;;6.93;3.80;;;22.00;48.00;;;;;;6213837;23;20050;-81
2021/04/19 12:14:52;;;;;;;8.10;3.55;;;22.00;48.10;;;;;;6214260;23;20013;-80
2021/04/19 12:17:17;;;;;;;5.40;3.50;;;22.00;48.20;;;;;;6214161;23;20429;-80
2021/04/19 12:19:43;;;;;;;4.60;3.13;;;21.90;48.30;;;;;;6213325;23;20118;-80
2021/04/19 12:22:09;;;;;;;5.72;3.72;;;21.90;48.40;;;;;;6213140;23;20012;-80
2021/04/19 12:24:35;;;;;;;6.13;3.25;;;22.00;48.40;;;;;;6214027;23;20429;-80
2021/04/19 12:27:01;;;;;;;6.22;3.80;;;22.00;48.30;;;;;;6213689;23;20527;-81
2021/04/19 12:29:26;;;;;;;5.55;3.35;;;22.00;48.40;;;;;;6213363;23;20051;-79
2021/04/19 12:31:52;;;;;;;6.28;3.55;;;21.90;48.60;;;;;;6213446;23;20000;-80
2021/04/19 12:34:18;;;;;;;5.45;3.38;;;21.90;48.70;;;;;;6213885;23;20088;-80
2021/04/19 12:36:44;;;;;;;5.72;3.30;;;21.90;48.70;;;;;;6212523;23;20035;-80
2021/04/19 12:39:10;;;;;;;4.30;3.03;;;21.90;48.70;;;;;;6213143;23;20015;-80
2021/04/19 12:41:36;;;;;;;5.30;3.78;;;22.00;48.70;;;;;;6214320;23;20067;-80
2021/04/19 12:44:02;;;;;;;6.05;3.35;;;22.00;48.50;;;;;;6213305;23;20079;-81
2021/04/19 12:46:28;;;;;;;5.57;3.33;;;22.00;48.40;;;;;;6186949;23;20004;-81
2021/04/19 12:48:55;;;;;;;4.30;3.10;;;21.90;48.50;;;;;;6213253;23;20525;-80
2021/04/19 12:51:25;;;;;;;5.72;3.42;;;21.90;48.70;;;;;;6213046;23;20008;-80
2021/04/19 12:53:51;;;;;;;5.55;3.20;;;21.80;49.10;;;;;;6213826;23;20001;-80
2021/04/19 12:56:17;;;;;;;5.45;3.45;;;21.80;49.20;;;;;;6213542;23;20004;-80
2021/04/19 12:58:43;;;;;;;5.07;3.22;;;21.70;49.30;;;;;;6212483;23;20001;-80